Norwegian Getaway — C6ZJ4 — position and weather

sailwx.info

Track history (hours):
 
Tides and Currents Weather Stations Pressure Air Temp Water Temp Dewpoint Dewpoint Depression Visibility Wind Speed Wind Dir Waves Ship Positions

Norwegian Getaway

Last reported at 2017-May-29 17:00 UTC. Time now 2017-May-29 16:58 UTC.
Position N 59°57' E 030°12'.

Length 326 m; draft 8.6 m.

Type: Passenger vessel. MMSI: 311050900.

Date/timePositionNaut miles runAvg speedWind from/ knotsBaromVisibWave heightAir tempDewpointWater temp
2017-May-29 17:00N 59°57' E 030°12'0 0.0
2017-May-29 16:30N 59°57' E 030°12'0 0.0
2017-May-29 15:59N 59°57' E 030°12'0 0.0
2017-May-29 15:28N 59°57' E 030°12'0 0.0
2017-May-29 15:00N 59°57' E 030°12'0 0.0
2017-May-29 13:59N 59°57' E 030°12'0 0.0
2017-May-29 13:29N 59°57' E 030°12'0 0.0
2017-May-29 12:55N 59°57' E 030°12'0 0.0
2017-May-29 12:30N 59°57' E 030°12'0 0.0
2017-May-29 12:00N 59°57' E 030°12'0 0.0
2017-May-29 11:30N 59°57' E 030°12'0 0.0
2017-May-29 10:57N 59°57' E 030°12'0 0.0
2017-May-29 10:24N 59°57' E 030°12'0 0.0
2017-May-29 09:54N 59°57' E 030°12'0 0.0
2017-May-29 09:19N 59°57' E 030°12'0 0.0
2017-May-29 08:58N 59°57' E 030°12'0 0.0
2017-May-29 08:29N 59°57' E 030°12'0 0.0
2017-May-29 07:47N 59°57' E 030°12'0 0.0
2017-May-29 07:21N 59°57' E 030°12'0 0.0
2017-May-29 06:57N 59°57' E 030°12'0 0.0
2017-May-29 06:30N 59°57' E 030°12'0 0.0
2017-May-29 06:00N 59°57' E 030°12'0 0.0
2017-May-29 05:28N 59°57' E 030°12'0 0.0
2017-May-29 04:51N 59°57' E 030°12'0 0.0
2017-May-29 04:29N 59°57' E 030°12'0 0.0
2017-May-29 03:58N 59°57' E 030°12'0 0.0
2017-May-29 03:30N 59°57' E 030°12'1 1.9
2017-May-29 03:00N 59°57' E 030°10'4 8.7
2017-May-29 02:30N 59°56' E 030°01'510.0
2017-May-29 02:00N 59°57' E 029°52'5 9.3
2017-May-29 01:30N 59°59' E 029°44'510.7
2017-May-29 01:00N 60°01' E 029°33'1213.6
2017-May-29 00:08N 60°01' E 029°10'215.4
2017-May-29 00:00N 60°01' E 029°06'714.2
2017-May-28 23:30N 60°02' E 028°52'714.4
2017-May-28 23:00N 60°02' E 028°37'714.7
2017-May-28 22:30N 60°04' E 028°23'714.6
2017-May-28 22:00N 60°08' E 028°11'714.9
2017-May-28 21:30N 60°10' E 027°56'714.4
2017-May-28 21:00N 60°09' E 027°42'714.9
2017-May-28 20:30N 60°06' E 027°29'714.9
2017-May-28 20:00N 60°02' E 027°16'1014.3
2017-May-28 19:20N 59°58' E 026°58'514.8
2017-May-28 19:00N 59°59' E 026°48'714.7
2017-May-28 18:31N 59°59' E 026°34'814.9
2017-May-28 18:00N 59°56' E 026°19'70 4.6
2017-May-28 02:49N 59°36' E 024°06'514.9
2017-May-28 02:30N 59°34' E 023°58'915.3
2017-May-28 01:55N 59°31' E 023°41'615.3
2017-May-28 01:30N 59°29' E 023°29'815.3
2017-May-28 00:59N 59°27' E 023°14'23816.5
2017-May-27 10:34N 56°36' E 018°02'218.3
2017-May-27 10:28N 56°34' E 017°59'818.4
2017-May-27 10:00N 56°29' E 017°47'918.5
2017-May-27 09:30N 56°24' E 017°34'918.5
2017-May-27 09:00N 56°18' E 017°20'918.5
2017-May-27 08:30N 56°13' E 017°07'918.4
2017-May-27 08:00N 56°07' E 016°54'918.5
2017-May-27 07:30N 56°01' E 016°41'918.6
2017-May-27 07:00N 55°56' E 016°27'918.5
2017-May-27 06:30N 55°52' E 016°13'918.5
2017-May-27 06:00N 55°47' E 015°58'918.5
2017-May-27 05:30N 55°42' E 015°44'918.4
2017-May-27 05:00N 55°38' E 015°30'918.4
2017-May-27 04:30N 55°34' E 015°15'918.6
2017-May-27 04:00N 55°30' E 015°00'10616.2
2017-May-27 04:00N 55°30' E 015°18'1938.6 090 / 201018.0 5.4 15.011.811.6
2017-May-27 03:30N 55°25' E 014°46'917.9
2017-May-27 03:00N 55°20' E 014°33'918.6
2017-May-27 02:30N 55°13' E 014°23'918.5
2017-May-27 02:00N 55°06' E 014°13'918.0
2017-May-27 01:30N 54°60' E 014°01'1019.4
2017-May-27 01:00N 54°57' E 013°45'1019.2
2017-May-27 00:30N 54°53' E 013°29'918.8
2017-May-27 00:00N 54°51' E 013°14'918.9
2017-May-26 23:30N 54°48' E 012°58'918.5
2017-May-26 23:00N 54°46' E 012°43'918.4
2017-May-26 22:30N 54°41' E 012°29'2817.5
2017-May-26 20:55N 54°17' E 012°05'5 0.3
2017-May-26 04:33N 54°12' E 012°05'010.3
2017-May-26 04:30N 54°12' E 012°05'4 8.8
2017-May-26 04:00N 54°16' E 012°01'2413.7
2017-May-26 02:16N 54°30' E 011°28'416.1
2017-May-26 02:00N 54°32' E 011°22'816.4
2017-May-26 01:30N 54°36' E 011°09'815.2
2017-May-26 01:00N 54°39' E 010°57'714.0
2017-May-26 00:30N 54°45' E 010°51'816.3
2017-May-26 00:00N 54°53' E 010°53'815.4
2017-May-25 23:30N 54°60' E 011°01'8114.3
2017-May-25 17:52N 56°12' E 012°05'1017.1
2017-May-25 17:17N 56°12' E 012°23'518.4
2017-May-25 17:00N 56°08' E 012°30'917.2
2017-May-25 16:30N 56°02' E 012°40'816.9
2017-May-25 16:00N 55°54' E 012°45'816.3
2017-May-25 15:31N 55°46' E 012°41'4 7.8
2017-May-25 15:01N 55°43' E 012°37'0 0.1
2017-May-25 14:00N 55°43' E 012°37'0 0.0
2017-May-25 13:30N 55°43' E 012°37'0 0.0
2017-May-25 13:00N 55°43' E 012°37'0 0.0
2017-May-25 12:30N 55°43' E 012°37'0 0.0
2017-May-25 11:59N 55°43' E 012°37'0 0.0
2017-May-25 11:29N 55°43' E 012°37'0 0.0
2017-May-25 11:00N 55°43' E 012°37'0 0.0
2017-May-25 10:30N 55°43' E 012°37'0 0.0
2017-May-25 10:00N 55°43' E 012°37'0 0.0
2017-May-25 09:29N 55°43' E 012°37'0 0.0
2017-May-25 08:58N 55°43' E 012°37'0 0.0
2017-May-25 08:28N 55°43' E 012°37'0 0.0
2017-May-25 07:58N 55°43' E 012°37'0 0.0
2017-May-25 07:28N 55°43' E 012°37'0 0.0
2017-May-25 06:58N 55°43' E 012°37'0 0.0
2017-May-25 06:28N 55°43' E 012°37'0 0.0
2017-May-25 05:57N 55°43' E 012°37'0 0.0
2017-May-25 05:30N 55°43' E 012°37'0 0.0
2017-May-25 04:59N 55°43' E 012°37'0 0.0
2017-May-25 04:29N 55°43' E 012°37'0 0.0
2017-May-25 04:00N 55°43' E 012°37'0 0.2
2017-May-25 03:30N 55°43' E 012°37'3 5.1
2017-May-25 03:00N 55°45' E 012°40'611.6
2017-May-25 02:30N 55°50' E 012°44'611.9
2017-May-25 02:01N 55°56' E 012°44'612.8
2017-May-25 01:31N 56°02' E 012°39'612.7
2017-May-25 01:00N 56°07' E 012°32'713.9
2017-May-25 00:31N 56°10' E 012°21'6611.6
2017-May-24 18:50N 55°22' E 011°02'617.3
2017-May-24 18:30N 55°16' E 011°04'816.6
2017-May-24 18:00N 55°08' E 011°03'918.0
2017-May-24 17:30N 54°59' E 011°01'917.4
2017-May-24 17:00N 54°52' E 010°53'917.1
2017-May-24 16:30N 54°44' E 010°54'816.6
2017-May-24 16:00N 54°39' E 011°05'917.9
2017-May-24 15:30N 54°34' E 011°19'2217.7
2017-May-24 14:15N 54°26' E 011°54'1115.4
2017-May-24 13:30N 54°30' E 012°13'7017.1
2017-May-24 09:25N 55°02' E 014°00'615.2
2017-May-24 09:00N 55°06' E 014°09'816.2
2017-May-24 08:30N 55°13' E 014°17'816.3
2017-May-24 08:01N 55°19' E 014°26'816.3
2017-May-24 07:30N 55°25' E 014°36'816.6
2017-May-24 07:00N 55°29' E 014°48'816.6
2017-May-24 06:30N 55°34' E 015°01'816.7
2017-May-24 06:00N 55°37' E 015°14'917.2
2017-May-24 05:30N 55°41' E 015°27'917.4
2017-May-24 05:00N 55°46' E 015°41'917.5
2017-May-24 04:30N 55°50' E 015°54'917.4
2017-May-24 04:00N 55°55' E 016°07'917.3
2017-May-24 03:30N 55°59' E 016°21'917.1
2017-May-24 03:00N 56°04' E 016°34'817.0
2017-May-24 02:30N 56°08' E 016°46'816.8
2017-May-24 02:00N 56°13' E 016°58'816.5
2017-May-24 01:30N 56°21' E 017°03'816.9
2017-May-24 01:00N 56°30' E 017°05'816.8
2017-May-24 00:30N 56°38' E 017°09'816.9
2017-May-24 00:00N 56°45' E 017°16'817.0
2017-May-23 23:30N 56°53' E 017°21'816.8
2017-May-23 23:00N 57°01' E 017°26'916.9
2017-May-23 22:30N 57°10' E 017°30'227 7.9
2017-May-22 17:49N 59°35' E 023°01'618.2
2017-May-22 17:30N 59°37' E 023°12'918.0
2017-May-22 17:00N 59°40' E 023°29'918.2
2017-May-22 16:31N 59°42' E 023°47'918.5
2017-May-22 16:00N 59°44' E 024°05'31 2.3
2017-May-22 02:54N 60°01' E 024°56'1311.4
2017-May-22 01:45N 59°55' E 025°18'716.0
2017-May-22 01:19N 59°55' E 025°32'517.1
2017-May-22 01:00N 59°55' E 025°42'917.6
2017-May-22 00:30N 59°57' E 025°60'917.3
2017-May-22 00:00N 59°59' E 026°16'917.3
2017-May-21 23:30N 60°01' E 026°33'917.2
2017-May-21 23:01N 60°00' E 026°50'816.8
2017-May-21 22:30N 60°01' E 027°07'917.4
2017-May-21 22:00N 60°05' E 027°22'917.4
2017-May-21 21:30N 60°10' E 027°37'816.7
2017-May-21 21:01N 60°11' E 027°53'918.2
2017-May-21 20:30N 60°09' E 028°11'917.9
2017-May-21 20:00N 60°04' E 028°26'917.5
2017-May-21 19:31N 60°03' E 028°44'918.2
2017-May-21 19:01N 60°02' E 029°02'918.5
2017-May-21 18:30N 60°02' E 029°20'1311.6
2017-May-21 17:22N 59°59' E 029°46'510.3
2017-May-21 16:51N 59°56' E 029°56'310.0
2017-May-21 16:30N 59°56' E 030°02'4 8.6
2017-May-21 16:01N 59°57' E 030°10'0 0.7
2017-May-21 15:28N 59°57' E 030°11'0 0.0
2017-May-21 14:58N 59°57' E 030°11'0 0.0
2017-May-21 14:30N 59°57' E 030°11'0 0.0
2017-May-21 13:30N 59°57' E 030°11'0 0.0
2017-May-21 13:00N 59°57' E 030°11'0 0.0
2017-May-21 12:30N 59°57' E 030°11'0 0.0
2017-May-21 12:00N 59°57' E 030°11'0 0.0
2017-May-21 11:26N 59°57' E 030°11'0 0.0
2017-May-21 10:58N 59°57' E 030°11'0 0.0
2017-May-21 10:30N 59°57' E 030°11'0 0.0
2017-May-21 10:00N 59°57' E 030°11'0 0.0
2017-May-21 09:29N 59°57' E 030°11'0 0.0
2017-May-21 08:55N 59°57' E 030°11'0 0.0
2017-May-21 08:31N 59°57' E 030°11'0 0.0
2017-May-21 07:59N 59°57' E 030°11'0 0.0
2017-May-21 07:25N 59°57' E 030°11'0 0.0
2017-May-21 06:54N 59°57' E 030°11'0 0.0
2017-May-21 06:29N 59°57' E 030°11'0 0.0
2017-May-21 05:59N 59°57' E 030°11'0 0.0
2017-May-21 05:28N 59°57' E 030°11'0 0.0
2017-May-21 05:00N 59°57' E 030°11'0 0.0
2017-May-21 04:25N 59°57' E 030°11'0 0.0
2017-May-21 03:55N 59°57' E 030°11'0 0.0
2017-May-21 03:29N 59°57' E 030°11'0 0.0
2017-May-21 02:59N 59°57' E 030°11'0 0.0
2017-May-21 02:28N 59°57' E 030°11'0 0.0
2017-May-21 01:57N 59°57' E 030°11'0 0.0
2017-May-21 01:25N 59°57' E 030°11'0 0.0
2017-May-21 01:00N 59°57' E 030°11'0 0.0
2017-May-21 00:28N 59°57' E 030°11'0 0.0
2017-May-20 23:58N 59°57' E 030°11'0 0.0
2017-May-20 23:28N 59°57' E 030°11'0 0.0
2017-May-20 23:00N 59°57' E 030°11'0 0.0
2017-May-20 22:26N 59°57' E 030°11'0 0.0
2017-May-20 21:56N 59°57' E 030°11'0 0.0
2017-May-20 21:28N 59°57' E 030°11'0 0.0
2017-May-20 21:00N 59°57' E 030°11'0 0.0
2017-May-20 20:30N 59°57' E 030°11'0 0.0
2017-May-20 20:00N 59°57' E 030°11'0 0.0
2017-May-20 19:24N 59°57' E 030°11'0 0.0
2017-May-20 19:00N 59°57' E 030°11'0 0.0
2017-May-20 18:28N 59°57' E 030°11'0 0.0
2017-May-20 17:58N 59°57' E 030°11'0 0.0
2017-May-20 17:29N 59°57' E 030°11'0 0.0
2017-May-20 16:56N 59°57' E 030°11'0 0.0
2017-May-20 16:27N 59°57' E 030°11'0 0.0
2017-May-20 15:59N 59°57' E 030°11'0 0.0
2017-May-20 15:26N 59°57' E 030°11'0 0.0
2017-May-20 15:00N 59°57' E 030°11'0 0.0
2017-May-20 13:59N 59°57' E 030°11'0 0.0
2017-May-20 13:28N 59°57' E 030°11'0 0.0
2017-May-20 13:00N 59°57' E 030°11'0 0.0
2017-May-20 12:30N 59°57' E 030°11'0 0.0
2017-May-20 11:58N 59°57' E 030°11'0 0.0
2017-May-20 11:28N 59°57' E 030°11'0 0.0
2017-May-20 10:58N 59°57' E 030°11'0 0.0
2017-May-20 10:29N 59°57' E 030°11'0 0.0
2017-May-20 10:00N 59°57' E 030°11'0 0.0
2017-May-20 09:28N 59°57' E 030°11'0 0.0
2017-May-20 08:58N 59°57' E 030°11'0 0.0
2017-May-20 08:28N 59°57' E 030°11'0 0.0
2017-May-20 08:00N 59°57' E 030°11'0 0.0
2017-May-20 07:30N 59°57' E 030°11'0 0.0
2017-May-20 07:00N 59°57' E 030°11'0 0.0
2017-May-20 06:30N 59°57' E 030°11'0 0.0
2017-May-20 06:00N 59°57' E 030°11'0 0.0
2017-May-20 05:30N 59°57' E 030°11'0 0.0
2017-May-20 04:57N 59°57' E 030°11'0 0.0
2017-May-20 04:26N 59°57' E 030°11'0 0.0
2017-May-20 03:59N 59°57' E 030°11'0 0.2
2017-May-20 03:31N 59°57' E 030°11'3 6.9
2017-May-20 03:00N 59°56' E 030°04'5 9.7
2017-May-20 02:30N 59°56' E 029°55'510.3
2017-May-20 02:00N 59°59' E 029°45'5 9.8
2017-May-20 01:30N 60°00' E 029°36'1512.1
2017-May-20 00:18N 60°01' E 029°07'413.3
2017-May-20 00:00N 60°02' E 028°59'713.6
2017-May-19 23:30N 60°02' E 028°46'713.8
2017-May-19 23:00N 60°02' E 028°32'713.4
2017-May-19 22:30N 60°05' E 028°20'713.5
2017-May-19 22:00N 60°08' E 028°08'714.2
2017-May-19 21:30N 60°10' E 027°54'713.4
2017-May-19 21:00N 60°09' E 027°41'714.1
2017-May-19 20:30N 60°05' E 027°29'714.0
2017-May-19 20:00N 60°02' E 027°17'714.3
2017-May-19 19:30N 59°58' E 027°04'714.2
2017-May-19 19:00N 59°59' E 026°50'814.4
2017-May-19 18:27N 59°59' E 026°34'714.5
2017-May-19 17:56N 59°57' E 026°20'  
Track history (hours):
 
Tides and Currents Weather Stations Pressure Air Temp Water Temp Dewpoint Dewpoint Depression Visibility Wind Speed Wind Dir Waves Ship Positions

Norwegian Getaway

Last reported at 2017-May-29 17:00 UTC. Time now 2017-May-29 16:58 UTC.
Position N 59°57' E 030°12'.

Length 326 m; draft 8.6 m.

Type: Passenger vessel. MMSI: 311050900.

Date/timePositionNaut miles runAvg speedWind from/ knotsBaromVisibWave heightAir tempDewpointWater temp
2017-May-29 17:00N 59°57' E 030°12'0 0.0
2017-May-29 16:30N 59°57' E 030°12'0 0.0
2017-May-29 15:59N 59°57' E 030°12'0 0.0
2017-May-29 15:28N 59°57' E 030°12'0 0.0
2017-May-29 15:00N 59°57' E 030°12'0 0.0
2017-May-29 13:59N 59°57' E 030°12'0 0.0
2017-May-29 13:29N 59°57' E 030°12'0 0.0
2017-May-29 12:55N 59°57' E 030°12'0 0.0
2017-May-29 12:30N 59°57' E 030°12'0 0.0
2017-May-29 12:00N 59°57' E 030°12'0 0.0
2017-May-29 11:30N 59°57' E 030°12'0 0.0
2017-May-29 10:57N 59°57' E 030°12'0 0.0
2017-May-29 10:24N 59°57' E 030°12'0 0.0
2017-May-29 09:54N 59°57' E 030°12'0 0.0
2017-May-29 09:19N 59°57' E 030°12'0 0.0
2017-May-29 08:58N 59°57' E 030°12'0 0.0
2017-May-29 08:29N 59°57' E 030°12'0 0.0
2017-May-29 07:47N 59°57' E 030°12'0 0.0
2017-May-29 07:21N 59°57' E 030°12'0 0.0
2017-May-29 06:57N 59°57' E 030°12'0 0.0
2017-May-29 06:30N 59°57' E 030°12'0 0.0
2017-May-29 06:00N 59°57' E 030°12'0 0.0
2017-May-29 05:28N 59°57' E 030°12'0 0.0
2017-May-29 04:51N 59°57' E 030°12'0 0.0
2017-May-29 04:29N 59°57' E 030°12'0 0.0
2017-May-29 03:58N 59°57' E 030°12'0 0.0
2017-May-29 03:30N 59°57' E 030°12'1 1.9
2017-May-29 03:00N 59°57' E 030°10'4 8.7
2017-May-29 02:30N 59°56' E 030°01'510.0
2017-May-29 02:00N 59°57' E 029°52'5 9.3
2017-May-29 01:30N 59°59' E 029°44'510.7
2017-May-29 01:00N 60°01' E 029°33'1213.6
2017-May-29 00:08N 60°01' E 029°10'215.4
2017-May-29 00:00N 60°01' E 029°06'714.2
2017-May-28 23:30N 60°02' E 028°52'714.4
2017-May-28 23:00N 60°02' E 028°37'714.7
2017-May-28 22:30N 60°04' E 028°23'714.6
2017-May-28 22:00N 60°08' E 028°11'714.9
2017-May-28 21:30N 60°10' E 027°56'714.4
2017-May-28 21:00N 60°09' E 027°42'714.9
2017-May-28 20:30N 60°06' E 027°29'714.9
2017-May-28 20:00N 60°02' E 027°16'1014.3
2017-May-28 19:20N 59°58' E 026°58'514.8
2017-May-28 19:00N 59°59' E 026°48'714.7
2017-May-28 18:31N 59°59' E 026°34'814.9
2017-May-28 18:00N 59°56' E 026°19'70 4.6
2017-May-28 02:49N 59°36' E 024°06'514.9
2017-May-28 02:30N 59°34' E 023°58'915.3
2017-May-28 01:55N 59°31' E 023°41'615.3
2017-May-28 01:30N 59°29' E 023°29'815.3
2017-May-28 00:59N 59°27' E 023°14'23816.5
2017-May-27 10:34N 56°36' E 018°02'218.3
2017-May-27 10:28N 56°34' E 017°59'818.4
2017-May-27 10:00N 56°29' E 017°47'918.5
2017-May-27 09:30N 56°24' E 017°34'918.5
2017-May-27 09:00N 56°18' E 017°20'918.5
2017-May-27 08:30N 56°13' E 017°07'918.4
2017-May-27 08:00N 56°07' E 016°54'918.5
2017-May-27 07:30N 56°01' E 016°41'918.6
2017-May-27 07:00N 55°56' E 016°27'918.5
2017-May-27 06:30N 55°52' E 016°13'918.5
2017-May-27 06:00N 55°47' E 015°58'918.5
2017-May-27 05:30N 55°42' E 015°44'918.4
2017-May-27 05:00N 55°38' E 015°30'918.4
2017-May-27 04:30N 55°34' E 015°15'918.6
2017-May-27 04:00N 55°30' E 015°00'10616.2
2017-May-27 04:00N 55°30' E 015°18'1938.6 090 / 201018.0 5.4 15.011.811.6
2017-May-27 03:30N 55°25' E 014°46'917.9
2017-May-27 03:00N 55°20' E 014°33'918.6
2017-May-27 02:30N 55°13' E 014°23'918.5
2017-May-27 02:00N 55°06' E 014°13'918.0
2017-May-27 01:30N 54°60' E 014°01'1019.4
2017-May-27 01:00N 54°57' E 013°45'1019.2
2017-May-27 00:30N 54°53' E 013°29'918.8
2017-May-27 00:00N 54°51' E 013°14'918.9
2017-May-26 23:30N 54°48' E 012°58'918.5
2017-May-26 23:00N 54°46' E 012°43'918.4
2017-May-26 22:30N 54°41' E 012°29'2817.5
2017-May-26 20:55N 54°17' E 012°05'5 0.3
2017-May-26 04:33N 54°12' E 012°05'010.3
2017-May-26 04:30N 54°12' E 012°05'4 8.8
2017-May-26 04:00N 54°16' E 012°01'2413.7
2017-May-26 02:16N 54°30' E 011°28'416.1
2017-May-26 02:00N 54°32' E 011°22'816.4
2017-May-26 01:30N 54°36' E 011°09'815.2
2017-May-26 01:00N 54°39' E 010°57'714.0
2017-May-26 00:30N 54°45' E 010°51'816.3
2017-May-26 00:00N 54°53' E 010°53'815.4
2017-May-25 23:30N 54°60' E 011°01'8114.3
2017-May-25 17:52N 56°12' E 012°05'1017.1
2017-May-25 17:17N 56°12' E 012°23'518.4
2017-May-25 17:00N 56°08' E 012°30'917.2
2017-May-25 16:30N 56°02' E 012°40'816.9
2017-May-25 16:00N 55°54' E 012°45'816.3
2017-May-25 15:31N 55°46' E 012°41'4 7.8
2017-May-25 15:01N 55°43' E 012°37'0 0.1
2017-May-25 14:00N 55°43' E 012°37'0 0.0
2017-May-25 13:30N 55°43' E 012°37'0 0.0
2017-May-25 13:00N 55°43' E 012°37'0 0.0
2017-May-25 12:30N 55°43' E 012°37'0 0.0
2017-May-25 11:59N 55°43' E 012°37'0 0.0
2017-May-25 11:29N 55°43' E 012°37'0 0.0
2017-May-25 11:00N 55°43' E 012°37'0 0.0
2017-May-25 10:30N 55°43' E 012°37'0 0.0
2017-May-25 10:00N 55°43' E 012°37'0 0.0
2017-May-25 09:29N 55°43' E 012°37'0 0.0
2017-May-25 08:58N 55°43' E 012°37'0 0.0
2017-May-25 08:28N 55°43' E 012°37'0 0.0
2017-May-25 07:58N 55°43' E 012°37'0 0.0
2017-May-25 07:28N 55°43' E 012°37'0 0.0
2017-May-25 06:58N 55°43' E 012°37'0 0.0
2017-May-25 06:28N 55°43' E 012°37'0 0.0
2017-May-25 05:57N 55°43' E 012°37'0 0.0
2017-May-25 05:30N 55°43' E 012°37'0 0.0
2017-May-25 04:59N 55°43' E 012°37'0 0.0
2017-May-25 04:29N 55°43' E 012°37'0 0.0
2017-May-25 04:00N 55°43' E 012°37'0 0.2
2017-May-25 03:30N 55°43' E 012°37'3 5.1
2017-May-25 03:00N 55°45' E 012°40'611.6
2017-May-25 02:30N 55°50' E 012°44'611.9
2017-May-25 02:01N 55°56' E 012°44'612.8
2017-May-25 01:31N 56°02' E 012°39'612.7
2017-May-25 01:00N 56°07' E 012°32'713.9
2017-May-25 00:31N 56°10' E 012°21'6611.6
2017-May-24 18:50N 55°22' E 011°02'617.3
2017-May-24 18:30N 55°16' E 011°04'816.6
2017-May-24 18:00N 55°08' E 011°03'918.0
2017-May-24 17:30N 54°59' E 011°01'917.4
2017-May-24 17:00N 54°52' E 010°53'917.1
2017-May-24 16:30N 54°44' E 010°54'816.6
2017-May-24 16:00N 54°39' E 011°05'917.9
2017-May-24 15:30N 54°34' E 011°19'2217.7
2017-May-24 14:15N 54°26' E 011°54'1115.4
2017-May-24 13:30N 54°30' E 012°13'7017.1
2017-May-24 09:25N 55°02' E 014°00'615.2
2017-May-24 09:00N 55°06' E 014°09'816.2
2017-May-24 08:30N 55°13' E 014°17'816.3
2017-May-24 08:01N 55°19' E 014°26'816.3
2017-May-24 07:30N 55°25' E 014°36'816.6
2017-May-24 07:00N 55°29' E 014°48'816.6
2017-May-24 06:30N 55°34' E 015°01'816.7
2017-May-24 06:00N 55°37' E 015°14'917.2
2017-May-24 05:30N 55°41' E 015°27'917.4
2017-May-24 05:00N 55°46' E 015°41'917.5
2017-May-24 04:30N 55°50' E 015°54'917.4
2017-May-24 04:00N 55°55' E 016°07'917.3
2017-May-24 03:30N 55°59' E 016°21'917.1
2017-May-24 03:00N 56°04' E 016°34'817.0
2017-May-24 02:30N 56°08' E 016°46'816.8
2017-May-24 02:00N 56°13' E 016°58'816.5
2017-May-24 01:30N 56°21' E 017°03'816.9
2017-May-24 01:00N 56°30' E 017°05'816.8
2017-May-24 00:30N 56°38' E 017°09'816.9
2017-May-24 00:00N 56°45' E 017°16'817.0
2017-May-23 23:30N 56°53' E 017°21'816.8
2017-May-23 23:00N 57°01' E 017°26'916.9
2017-May-23 22:30N 57°10' E 017°30'227 7.9
2017-May-22 17:49N 59°35' E 023°01'618.2
2017-May-22 17:30N 59°37' E 023°12'918.0
2017-May-22 17:00N 59°40' E 023°29'918.2
2017-May-22 16:31N 59°42' E 023°47'918.5
2017-May-22 16:00N 59°44' E 024°05'31 2.3
2017-May-22 02:54N 60°01' E 024°56'1311.4
2017-May-22 01:45N 59°55' E 025°18'716.0
2017-May-22 01:19N 59°55' E 025°32'517.1
2017-May-22 01:00N 59°55' E 025°42'917.6
2017-May-22 00:30N 59°57' E 025°60'917.3
2017-May-22 00:00N 59°59' E 026°16'917.3
2017-May-21 23:30N 60°01' E 026°33'917.2
2017-May-21 23:01N 60°00' E 026°50'816.8
2017-May-21 22:30N 60°01' E 027°07'917.4
2017-May-21 22:00N 60°05' E 027°22'917.4
2017-May-21 21:30N 60°10' E 027°37'816.7
2017-May-21 21:01N 60°11' E 027°53'918.2
2017-May-21 20:30N 60°09' E 028°11'917.9
2017-May-21 20:00N 60°04' E 028°26'917.5
2017-May-21 19:31N 60°03' E 028°44'918.2
2017-May-21 19:01N 60°02' E 029°02'918.5
2017-May-21 18:30N 60°02' E 029°20'1311.6
2017-May-21 17:22N 59°59' E 029°46'510.3
2017-May-21 16:51N 59°56' E 029°56'310.0
2017-May-21 16:30N 59°56' E 030°02'4 8.6
2017-May-21 16:01N 59°57' E 030°10'0 0.7
2017-May-21 15:28N 59°57' E 030°11'0 0.0
2017-May-21 14:58N 59°57' E 030°11'0 0.0
2017-May-21 14:30N 59°57' E 030°11'0 0.0
2017-May-21 13:30N 59°57' E 030°11'0 0.0
2017-May-21 13:00N 59°57' E 030°11'0 0.0
2017-May-21 12:30N 59°57' E 030°11'0 0.0
2017-May-21 12:00N 59°57' E 030°11'0 0.0
2017-May-21 11:26N 59°57' E 030°11'0 0.0
2017-May-21 10:58N 59°57' E 030°11'0 0.0
2017-May-21 10:30N 59°57' E 030°11'0 0.0
2017-May-21 10:00N 59°57' E 030°11'0 0.0
2017-May-21 09:29N 59°57' E 030°11'0 0.0
2017-May-21 08:55N 59°57' E 030°11'0 0.0
2017-May-21 08:31N 59°57' E 030°11'0 0.0
2017-May-21 07:59N 59°57' E 030°11'0 0.0
2017-May-21 07:25N 59°57' E 030°11'0 0.0
2017-May-21 06:54N 59°57' E 030°11'0 0.0
2017-May-21 06:29N 59°57' E 030°11'0 0.0
2017-May-21 05:59N 59°57' E 030°11'0 0.0
2017-May-21 05:28N 59°57' E 030°11'0 0.0
2017-May-21 05:00N 59°57' E 030°11'0 0.0
2017-May-21 04:25N 59°57' E 030°11'0 0.0
2017-May-21 03:55N 59°57' E 030°11'0 0.0
2017-May-21 03:29N 59°57' E 030°11'0 0.0
2017-May-21 02:59N 59°57' E 030°11'0 0.0
2017-May-21 02:28N 59°57' E 030°11'0 0.0
2017-May-21 01:57N 59°57' E 030°11'0 0.0
2017-May-21 01:25N 59°57' E 030°11'0 0.0
2017-May-21 01:00N 59°57' E 030°11'0 0.0
2017-May-21 00:28N 59°57' E 030°11'0 0.0
2017-May-20 23:58N 59°57' E 030°11'0 0.0
2017-May-20 23:28N 59°57' E 030°11'0 0.0
2017-May-20 23:00N 59°57' E 030°11'0 0.0
2017-May-20 22:26N 59°57' E 030°11'0 0.0
2017-May-20 21:56N 59°57' E 030°11'0 0.0
2017-May-20 21:28N 59°57' E 030°11'0 0.0
2017-May-20 21:00N 59°57' E 030°11'0 0.0
2017-May-20 20:30N 59°57' E 030°11'0 0.0
2017-May-20 20:00N 59°57' E 030°11'0 0.0
2017-May-20 19:24N 59°57' E 030°11'0 0.0
2017-May-20 19:00N 59°57' E 030°11'0 0.0
2017-May-20 18:28N 59°57' E 030°11'0 0.0
2017-May-20 17:58N 59°57' E 030°11'0 0.0
2017-May-20 17:29N 59°57' E 030°11'0 0.0
2017-May-20 16:56N 59°57' E 030°11'0 0.0
2017-May-20 16:27N 59°57' E 030°11'0 0.0
2017-May-20 15:59N 59°57' E 030°11'0 0.0
2017-May-20 15:26N 59°57' E 030°11'0 0.0
2017-May-20 15:00N 59°57' E 030°11'0 0.0
2017-May-20 13:59N 59°57' E 030°11'0 0.0
2017-May-20 13:28N 59°57' E 030°11'0 0.0
2017-May-20 13:00N 59°57' E 030°11'0 0.0
2017-May-20 12:30N 59°57' E 030°11'0 0.0
2017-May-20 11:58N 59°57' E 030°11'0 0.0
2017-May-20 11:28N 59°57' E 030°11'0 0.0
2017-May-20 10:58N 59°57' E 030°11'0 0.0
2017-May-20 10:29N 59°57' E 030°11'0 0.0
2017-May-20 10:00N 59°57' E 030°11'0 0.0
2017-May-20 09:28N 59°57' E 030°11'0 0.0
2017-May-20 08:58N 59°57' E 030°11'0 0.0
2017-May-20 08:28N 59°57' E 030°11'0 0.0
2017-May-20 08:00N 59°57' E 030°11'0 0.0
2017-May-20 07:30N 59°57' E 030°11'0 0.0
2017-May-20 07:00N 59°57' E 030°11'0 0.0
2017-May-20 06:30N 59°57' E 030°11'0 0.0
2017-May-20 06:00N 59°57' E 030°11'0 0.0
2017-May-20 05:30N 59°57' E 030°11'0 0.0
2017-May-20 04:57N 59°57' E 030°11'0 0.0
2017-May-20 04:26N 59°57' E 030°11'0 0.0
2017-May-20 03:59N 59°57' E 030°11'0 0.2
2017-May-20 03:31N 59°57' E 030°11'3 6.9
2017-May-20 03:00N 59°56' E 030°04'5 9.7
2017-May-20 02:30N 59°56' E 029°55'510.3
2017-May-20 02:00N 59°59' E 029°45'5 9.8
2017-May-20 01:30N 60°00' E 029°36'1512.1
2017-May-20 00:18N 60°01' E 029°07'413.3
2017-May-20 00:00N 60°02' E 028°59'713.6
2017-May-19 23:30N 60°02' E 028°46'713.8
2017-May-19 23:00N 60°02' E 028°32'713.4
2017-May-19 22:30N 60°05' E 028°20'713.5
2017-May-19 22:00N 60°08' E 028°08'714.2
2017-May-19 21:30N 60°10' E 027°54'713.4
2017-May-19 21:00N 60°09' E 027°41'714.1
2017-May-19 20:30N 60°05' E 027°29'714.0
2017-May-19 20:00N 60°02' E 027°17'714.3
2017-May-19 19:30N 59°58' E 027°04'714.2
2017-May-19 19:00N 59°59' E 026°50'814.4
2017-May-19 18:27N 59°59' E 026°34'714.5
2017-May-19 17:56N 59°57' E 026°20'  

Dump ship's entire track history